Sierra Nevada Aquatic Research Lab (SNARL) Reserve, Santa Monica Mtns, California Weather observations

Data are for 10 minute period ending at time listed.
 Day   Time   Solar   Ave.   Ave.  Ave.  Vector  Max.   Baro.   Total    
  of    of     Rad.   Air    Rel.  Wind   Wind   Wind  Press.  Precip.   
Year   Day            Temp.  Hum.  Speed  Dir.   Gust                    
2015   (PST)  Kw/m2    F      %     mph   deg.    mph    mb.     in.     
-------------------------------------------------------------------------
  87   20:20   0.00   52.6    22    9.9   257    15.9   788.7    0.00 
  87   20:30   0.00   52.4    22   10.6   250    14.9   788.7    0.00 
  87   20:40   0.00   52.1    22    8.7   255    13.3   788.8    0.00 
  87   20:50   0.00   51.9    22   10.3   248    15.6   788.9    0.00 
  87   21:00   0.00   52.4    21    9.8   251    15.1   789.0    0.00 
  87   21:10   0.00   51.7    22    9.2   256    13.4   789.1    0.00 
  87   21:20   0.00   51.4    22    9.2   258    15.9   789.1    0.00 
  87   21:30   0.00   51.6    22    9.9   260    13.8   789.2    0.00 
  87   21:40   0.00   51.3    22   10.2   260    16.8   789.2    0.00 
  87   21:50   0.00   51.8    21   10.5   254    15.1   789.2    0.00 
  87   22:00   0.00   51.1    22    7.4   261    12.7   789.3    0.00 
  87   22:10   0.00   49.8    23    8.1   266    12.6   789.3    0.00 
  87   22:20   0.00   48.6    24    6.5   267     9.5   789.4    0.00 
  87   22:30   0.00   48.1    24    7.0   272    11.0   789.4    0.00 
  87   22:40   0.00   48.1    24    7.7   265    11.4   789.4    0.00 
  87   22:50   0.00   47.5    25    7.0   263     9.1   789.5    0.00 
  87   23:00   0.00   46.6    26    5.9   260     9.0   789.5    0.00 
  87   23:10   0.00   45.7    26    7.6   256    10.0   789.4    0.00 
  87   23:20   0.00   45.4    27    5.9   250     8.5   789.5    0.00 
  87   23:30   0.00   43.3    29    2.2   257     5.3   789.5    0.00 
  87   23:40   0.00   39.3    34    0.9    96     2.6   789.5    0.00 
  87   23:50   0.00   37.7    36    0.5    56     2.0   789.5    0.00 
  88    0:00   0.00   37.0    37    0.7   286     2.2   789.5    0.00 
  88    0:10   0.00   36.8    37    2.4   317     7.2   789.4    0.00 
  88    0:20   0.00   38.3    35    1.4   299     6.3   789.4    0.00 
  88    0:30   0.00   37.4    37    0.9   314     3.3   789.4    0.00 
  88    0:40   0.00   36.3    38    2.0   220     4.5   789.4    0.00 
  88    0:50   0.00   37.2    38    5.6   240     8.3   789.4    0.00 
  88    1:00   0.00   39.0    37    6.1   240     7.9   789.3    0.00 
  88    1:10   0.00   40.3    36    4.2   227     7.3   789.2    0.00 
  88    1:20   0.00   38.8    37    2.1   225     4.7   789.1    0.00 
  88    1:30   0.00   36.7    40    1.5   333     4.2   789.1    0.00 
  88    1:40   0.00   35.2    42    1.6   117     3.1   789.1    0.00 
  88    1:50   0.00   34.9    42    1.2   161     2.5   789.0    0.00 
  88    2:00   0.00   34.0    42    0.8   302     1.8   789.0    0.00 
  88    2:10   0.00   33.7    43    1.2   110     2.8   788.9    0.00 
  88    2:20   0.00   32.3    45    1.3    70     2.3   788.9    0.00 
  88    2:30   0.00   32.4    45    2.2   292     3.8   788.9    0.00 
  88    2:40   0.00   31.6    46    1.4   327     5.4   789.0    0.00 
  88    2:50   0.00   30.6    47    1.4   234     3.1   789.0    0.00 
  88    3:00   0.00   29.8    50    0.7   252     2.5   788.9    0.00 
  88    3:10   0.00   30.3    49    2.7   246     6.5   788.9    0.00 
  88    3:20   0.00   32.8    44    4.7   258     7.5   789.0    0.00 
  88    3:30   0.00   32.7    45    4.9   242    10.2   789.0    0.00 
  88    3:40   0.00   39.8    35    9.3   248    14.5   789.0    0.00 
  88    3:50   0.00   43.3    31    9.1   261    12.7   789.1    0.00 
  88    4:00   0.00   43.7    31    8.2   267    11.8   789.1    0.00 
  88    4:10   0.00   43.6    31    7.4   260     9.9   789.1    0.00 
  88    4:20   0.00   41.9    33    7.6   240    10.5   789.1    0.00 
  88    4:30   0.00   41.7    33    7.4   252     9.3   789.2    0.00 
  88    4:40   0.00   41.4    34    8.1   254    12.5   789.1    0.00 
  88    4:50   0.00   41.9    33    7.9   253    11.3   789.2    0.00 
  88    5:00   0.00   42.2    32    7.6   248    10.4   789.3    0.00 
  88    5:10   0.00   42.5    32    6.4   261    11.7   789.3    0.00 
  88    5:20   0.00   41.7    33    6.5   241     9.4   789.3    0.00 
  88    5:30   0.00   40.5    35    3.8   265     7.0   789.3    0.00 
  88    5:40   0.00   39.1    37    6.9   238     9.7   789.3    0.00 
  88    5:50   0.00   39.7    36    3.4   221     9.1   789.3    0.00 
  88    6:00   0.00   36.2    42    2.9   330     6.1   789.4    0.00 
  88    6:10   0.01   36.6    41    2.6   309     7.2   789.5    0.00 
  88    6:20   0.01   35.2    44    1.3   152     3.9   789.6    0.00 
  88    6:30   0.04   34.1    46    1.6    84     4.5   789.7    0.00 
  88    6:40   0.06   34.4    46    1.1   119     3.1   789.8    0.00 
  88    6:50   0.10   36.9    43    1.0    95     2.1   789.9    0.00 
  88    7:00   0.19   41.0    38    1.1   100     3.1   789.8    0.00 
  88    7:10   0.23   44.6    35    2.9   106     4.3   789.8    0.00 
  88    7:20   0.26   46.9    32    2.9   114     5.0   789.7    0.00 
  88    7:30   0.28   48.3    31    2.4    97     5.2   789.7    0.00 
  88    7:40   0.33   49.2    30    2.5    85     4.0   789.6    0.00 
  88    7:50   0.38   50.3    29    2.4    68     4.2   789.5    0.00 
  88    8:00   0.36   51.6    28    2.5    69     4.4   789.5    0.00 
  88    8:10   0.46   52.5    29    3.0    40     4.5   789.5    0.00 
  88    8:20   0.49   52.3    29    4.0    66     6.5   789.4    0.00 
  88    8:30   0.52   52.5    30    4.4    62     6.8   789.4    0.00 
  88    8:40   0.55   53.4    29    4.2    58     6.8   789.4    0.00 
  88    8:50   0.58   53.8    28    6.5    76     9.9   789.3    0.00 
  88    9:00   0.61   53.7    27    5.9    83     8.4   789.3    0.00 
  88    9:10   0.64   55.4    25    5.0    86     8.5   789.3    0.00 
  88    9:20   0.67   56.8    23    3.8    67     7.1   789.3    0.00 
  88    9:30   0.70   58.1    22    2.8    78     5.8   789.2    0.00 
  88    9:40   0.73   58.9    21    3.3    68     7.2   789.2    0.00 
  88    9:50   0.75   59.4    19    2.7     4     5.8   789.2    0.00 
  88   10:00   0.78   60.3    18    3.3    12     6.7   789.1    0.00 
  88   10:10   0.80   60.4    19    4.8    19     9.9   789.1    0.00 
  88   10:20   0.81   60.9    18    2.6    69     7.7   789.1    0.00 
  88   10:30   0.83   62.2    18    2.2   132     7.1   789.0    0.00 
  88   10:40   0.85   64.0    17    2.1   306     5.3   789.0    0.00 
  88   10:50   0.86   63.8    17    4.5    10     9.3   788.9    0.00 
  88   11:00   0.88   63.5    17    5.2    70    11.1   788.9    0.00 
  88   11:10   0.88   64.4    17    4.9    91     9.9   788.7    0.00 
  88   11:20   0.90   64.2    17    5.2   100     9.6   788.6    0.00 
  88   11:30   0.90   63.7    17    5.7    73    13.1   788.5    0.00 
  88   11:40   0.91   63.9    17    4.0   103     8.8   788.4    0.00 
  88   11:50   0.91   65.6    16    3.5    46     9.0   788.3    0.00 
  88   12:00   0.91   65.6    16    4.5   103    12.8   788.1    0.00 
  88   12:10   0.91   65.8    15    6.8    85    13.4   788.0    0.00 
  88   12:20   0.91   65.6    15    7.5    88    15.0   787.9    0.00 
  88   12:30   0.91   66.4    14    5.3    80    11.0   787.8    0.00 
  88   12:40   0.90   65.9    14    6.6    87    13.3   787.6    0.00 
  88   12:50   0.90   66.6    14    9.0    93    16.4   787.5    0.00 
  88   13:00   0.89   66.5    14    9.2    94    15.1   787.3    0.00 
  88   13:10   0.88   66.4    14    9.0   103    17.3   787.2    0.00 
  88   13:20   0.87   65.8    14    9.9   102    17.5   787.2    0.00 
  88   13:30   0.86   66.2    14    8.9    99    15.7   787.0    0.00 
  88   13:40   0.84   66.7    13   10.6    89    19.5   786.9    0.00 
  88   13:50   0.82   66.6    13    8.3    83    15.2   786.7    0.00 
  88   14:00   0.81   66.9    13   10.2    91    19.7   786.6    0.00 
  88   14:10   0.78   67.2    13   10.3    95    18.3   786.5    0.00 
  88   14:20   0.76   67.1    13    9.5    91    16.1   786.5    0.00 
  88   14:30   0.68   67.7    13    6.2    63    12.6   786.4    0.00 
  88   14:40   0.59   67.7    13    9.1    89    15.9   786.3    0.00 
  88   14:50   0.28   66.1    13   10.6    90    15.6   786.2    0.00 
  88   15:00   0.43   64.7    14    6.8    87    11.8   786.2    0.00 
  88   15:10   0.68   66.8    14    6.4   103    13.2   786.2    0.00 
  88   15:20   0.64   68.6    14    6.3   193    16.2   786.2    0.00 
  88   15:30   0.66   68.1    16   11.1   220    16.7   786.1    0.00 
  88   15:40   0.58   67.9    16   12.0   226    18.0   786.0    0.00 
  88   15:50   0.20   65.2    17   11.4   224    16.8   786.1    0.00 
  88   16:00   0.11   63.5    18   10.2   219    15.1   786.1    0.00 
  88   16:10   0.07   62.3    20    8.0   248    17.5   786.2    0.00 
  88   16:20   0.07   60.5    26   11.2   284    21.3   786.2    0.00 
  88   16:30   0.06   59.8    28    9.5   290    15.9   786.3    0.00 
  88   16:40   0.05   59.0    28   10.0   290    17.0   786.2    0.00 
  88   16:50   0.04   58.6    28    9.4   290    17.2   786.1    0.00 
  88   17:00   0.03   58.1    27   10.8   282    18.3   786.2    0.00 
  88   17:10   0.03   58.1    26    9.9   271    15.5   786.1    0.00 
  88   17:20   0.03   58.2    24   11.5   259    18.3   786.2    0.00 
  88   17:30   0.03   58.1    24   10.5   233    17.8   786.3    0.00 
  88   17:40   0.03   58.2    24   10.3   225    16.8   786.4    0.00 
  88   17:50   0.01   58.0    23   11.6   214    16.0   786.4    0.00 
  88   18:00   0.01   57.7    23   12.5   212    17.7   786.4    0.00 
  88   18:10   0.00   57.6    23   12.9   213    17.5   786.4    0.00 
  88   18:20   0.00   57.3    24   12.2   224    16.2   786.4    0.00 
  88   18:30   0.00   57.1    25    8.7   244    15.1   786.6    0.00 
  88   18:40   0.00   56.8    26    7.7   261    13.2   786.7    0.00 
  88   18:50   0.00   55.3    30    6.7   275    11.5   786.9    0.00 
  88   19:00   0.00   54.2    32    8.3   273    13.5   787.0    0.00 
  88   19:10   0.00   53.8    32    5.0   269     8.2   787.1    0.00 
  88   19:20   0.00   52.6    32    3.8   280     8.0   787.2    0.00 
  88   19:30   0.00   51.6    35    5.3   290     9.9   787.3    0.00 
  88   19:40   0.00   51.1    36    5.0   280     9.3   787.4    0.00 
  88   19:50   0.00   49.4    38    1.3   356     3.6   787.5    0.00 
  88   20:00   0.00   47.6    38    1.6    82     3.4   787.6    0.00 
  88   20:10   0.00   46.0    41    1.2   173     3.1   787.7    0.00 

Return to SNARL Reserve graphs page.


Western Regional Climate Center,wrcc@dri.edu